Time;durP1;ratioP1;P1;durP2;ratioP2;P2;SDS_P1;SDS_P2;PMS_P1;PMS_P2;Temp;Humidity;BMP_temperature;BMP_pressure;BME280_temperature;BME280_humidity;BME280_pressure;Samples;Min_cycle;Max_cycle;Signal;HPM_P1;HPM_P2
2022/12/24 00:02:23;;;;;;;17.37;6.03;;;10.50;99.90;;;;;;5035067;28;20518;-65
2022/12/24 00:04:49;;;;;;;15.55;5.68;;;10.50;99.90;;;;;;5035480;28;20273;-66
2022/12/24 00:07:15;;;;;;;15.00;5.93;;;10.50;99.90;;;;;;5035464;28;20193;-66
2022/12/24 00:09:40;;;;;;;27.10;6.00;;;10.50;99.90;;;;;;5034973;28;20183;-66
2022/12/24 00:12:06;;;;;;;20.25;6.93;;;10.50;99.90;;;;;;5035110;28;20638;-66
2022/12/24 00:14:32;;;;;;;17.67;6.57;;;10.60;99.90;;;;;;5033502;28;20206;-66
2022/12/24 00:16:58;;;;;;;15.02;5.57;;;10.60;99.90;;;;;;5034734;28;20203;-66
2022/12/24 00:19:24;;;;;;;13.55;5.43;;;10.50;99.90;;;;;;5035272;28;20199;-66
2022/12/24 00:21:49;;;;;;;20.95;6.45;;;10.50;99.90;;;;;;5035138;28;20183;-66
2022/12/24 00:24:15;;;;;;;19.03;6.23;;;10.50;99.90;;;;;;5034982;28;20195;-66
2022/12/24 00:26:41;;;;;;;18.03;6.40;;;10.40;99.90;;;;;;5034909;28;20168;-66
2022/12/24 00:29:07;;;;;;;20.60;6.80;;;10.40;99.90;;;;;;5034501;28;20196;-66
2022/12/24 00:31:33;;;;;;;29.15;7.50;;;10.40;99.90;;;;;;5034307;28;20531;-66
2022/12/24 00:33:59;;;;;;;19.53;6.50;;;10.50;99.90;;;;;;5034255;28;20198;-66
2022/12/24 00:36:25;;;;;;;21.65;7.13;;;10.60;99.90;;;;;;5034816;28;20171;-66
2022/12/24 00:38:50;;;;;;;22.70;6.30;;;10.50;99.90;;;;;;5033322;28;20639;-66
2022/12/24 00:41:27;;;;;;;20.07;6.77;;;10.50;99.90;;;;;;5034269;28;20286;-66
2022/12/24 00:43:57;;;;;;;25.08;7.07;;;10.50;99.90;;;;;;5034274;28;20198;-66
2022/12/24 00:46:25;;;;;;;18.97;5.97;;;10.40;99.90;;;;;;5033269;28;20171;-66
2022/12/24 00:48:51;;;;;;;20.50;7.60;;;10.40;99.90;;;;;;5034444;28;20230;-67
2022/12/24 00:51:17;;;;;;;18.17;6.90;;;10.40;99.90;;;;;;5034566;28;20245;-67
2022/12/24 00:53:43;;;;;;;21.70;7.27;;;10.30;99.90;;;;;;5034139;28;20219;-66
2022/12/24 00:56:09;;;;;;;23.93;7.30;;;10.30;99.90;;;;;;5033990;28;20214;-66
2022/12/24 00:58:35;;;;;;;22.37;7.77;;;10.30;99.90;;;;;;5034088;28;20175;-66
2022/12/24 01:01:01;;;;;;;22.88;6.75;;;10.30;99.90;;;;;;5032440;28;20298;-66
2022/12/24 01:03:36;;;;;;;24.07;7.63;;;10.30;99.90;;;;;;5033143;28;20211;-66
2022/12/24 01:06:03;;;;;;;19.60;6.90;;;10.30;99.90;;;;;;5034279;28;20242;-66
2022/12/24 01:08:29;;;;;;;19.95;6.35;;;10.40;99.90;;;;;;5034159;28;20190;-66
2022/12/24 01:10:55;;;;;;;26.43;8.90;;;10.50;99.90;;;;;;5034114;28;20175;-66
2022/12/24 01:13:21;;;;;;;21.00;6.43;;;10.40;99.90;;;;;;5033890;28;20526;-66
2022/12/24 01:15:47;;;;;;;20.43;6.33;;;10.50;99.90;;;;;;5033874;28;20162;-66
2022/12/24 01:18:13;;;;;;;23.50;6.93;;;10.50;99.90;;;;;;5049208;28;20182;-66
2022/12/24 01:20:39;;;;;;;24.80;6.90;;;10.40;99.90;;;;;;5034462;28;20202;-66
2022/12/24 01:23:04;;;;;;;24.57;6.57;;;10.40;99.90;;;;;;5033954;28;20549;-66
2022/12/24 01:25:30;;;;;;;23.90;6.72;;;10.40;99.90;;;;;;5034263;28;20194;-66
2022/12/24 01:27:56;;;;;;;26.60;6.65;;;10.30;99.90;;;;;;5033901;28;20221;-66
2022/12/24 01:30:21;;;;;;;22.13;6.53;;;10.30;99.90;;;;;;5033473;28;20635;-66
2022/12/24 01:32:47;;;;;;;28.83;7.53;;;10.30;99.90;;;;;;5033891;28;20233;-66
2022/12/24 01:35:13;;;;;;;26.57;7.57;;;10.30;99.90;;;;;;5033744;28;20195;-66
2022/12/24 01:37:40;;;;;;;25.00;6.57;;;10.30;99.90;;;;;;5033670;28;20592;-66
2022/12/24 01:45:47;;;;;;;24.90;7.07;;;10.30;99.90;;;;;;5033367;28;20205;-66
2022/12/24 01:48:21;;;;;;;19.43;6.77;;;10.30;99.90;;;;;;5033711;28;20155;-66
2022/12/24 01:50:50;;;;;;;22.40;7.17;;;10.30;99.90;;;;;;5033571;28;20162;-66
2022/12/24 01:53:16;;;;;;;19.70;5.95;;;10.30;99.90;;;;;;5033339;28;20182;-66
2022/12/24 01:55:44;;;;;;;20.07;7.53;;;10.30;99.90;;;;;;5033275;28;20218;-66
2022/12/24 01:58:13;;;;;;;28.73;7.20;;;10.20;99.90;;;;;;5033263;28;20175;-66
2022/12/24 02:00:39;;;;;;;29.30;7.50;;;10.30;99.90;;;;;;5033117;28;20199;-66
2022/12/24 02:03:05;;;;;;;26.80;7.27;;;10.20;99.90;;;;;;5033390;28;20171;-66
2022/12/24 02:05:48;;;;;;;27.63;7.03;;;10.30;99.90;;;;;;5033294;28;20191;-66
2022/12/24 02:08:14;;;;;;;28.50;7.33;;;10.20;99.90;;;;;;5033593;28;20691;-66
2022/12/24 02:10:40;;;;;;;23.40;7.47;;;10.20;99.90;;;;;;5031851;28;20183;-66
2022/12/24 02:13:06;;;;;;;27.13;7.60;;;10.20;99.90;;;;;;5031779;28;20690;-65
2022/12/24 02:16:19;;;;;;;21.70;7.03;;;10.20;99.90;;;;;;5034117;28;20210;-66
2022/12/24 02:19:16;;;;;;;20.43;6.40;;;10.20;99.90;;;;;;4976168;28;20673;-66
2022/12/24 02:21:42;;;;;;;24.90;7.70;;;10.10;99.90;;;;;;5037229;28;20658;-66
2022/12/24 02:24:25;;;;;;;25.07;7.07;;;10.10;99.90;;;;;;5037073;28;20215;-66
2022/12/24 02:27:06;;;;;;;26.23;7.40;;;10.10;99.90;;;;;;5036898;28;20534;-66
2022/12/24 02:30:09;;;;;;;17.70;6.07;;;10.20;99.90;;;;;;5036737;28;20195;-66
2022/12/24 02:32:50;;;;;;;35.30;7.60;;;10.20;99.90;;;;;;5036673;28;20217;-66
2022/12/24 02:35:47;;;;;;;26.17;8.97;;;10.20;99.90;;;;;;5036786;28;20223;-66
2022/12/24 02:38:15;;;;;;;24.73;7.30;;;10.10;99.90;;;;;;5036654;28;20172;-66
2022/12/24 02:41:05;;;;;;;29.77;9.07;;;10.10;99.90;;;;;;5036661;28;20230;-66
2022/12/24 02:43:35;;;;;;;22.23;7.43;;;10.20;99.90;;;;;;5036870;28;20164;-66
2022/12/24 02:46:10;;;;;;;24.87;8.20;;;10.20;99.90;;;;;;5036647;28;20646;-66
2022/12/24 02:48:39;;;;;;;23.10;7.67;;;10.20;99.90;;;;;;5037047;28;20237;-66
2022/12/24 02:51:08;;;;;;;14.63;6.30;;;10.10;99.90;;;;;;5036367;28;20190;-66
2022/12/24 02:53:35;;;;;;;22.60;7.67;;;10.10;99.90;;;;;;5036677;28;20637;-66
2022/12/24 02:56:30;;;;;;;26.00;7.60;;;10.10;99.90;;;;;;5036930;28;20178;-66
2022/12/24 02:59:08;;;;;;;24.00;7.90;;;10.10;99.90;;;;;;5036844;28;20167;-66
2022/12/24 03:02:04;;;;;;;21.60;7.13;;;10.10;99.90;;;;;;5036179;28;20179;-66
2022/12/24 03:04:39;;;;;;;26.47;8.13;;;10.00;99.90;;;;;;5036488;28;20191;-66
2022/12/24 03:07:23;;;;;;;31.87;7.27;;;10.00;99.90;;;;;;5036223;28;20158;-66
2022/12/24 03:10:12;;;;;;;26.97;7.67;;;10.00;99.90;;;;;;5036064;28;20175;-66
2022/12/24 03:12:45;;;;;;;19.07;6.93;;;10.00;99.90;;;;;;5036121;28;20156;-65
2022/12/24 03:15:14;;;;;;;21.33;7.67;;;9.90;99.90;;;;;;5036303;28;20195;-65
2022/12/24 03:17:44;;;;;;;25.03;8.07;;;9.90;99.90;;;;;;5035748;28;20257;-65
2022/12/24 03:20:12;;;;;;;24.77;7.50;;;9.90;99.90;;;;;;5034456;28;20618;-65
2022/12/24 03:22:38;;;;;;;25.13;8.30;;;9.80;99.90;;;;;;5035793;28;20178;-65
2022/12/24 03:25:04;;;;;;;23.20;8.07;;;9.80;99.90;;;;;;5034469;28;20614;-65
2022/12/24 03:27:32;;;;;;;27.40;8.83;;;9.80;99.90;;;;;;5034991;28;20179;-65
2022/12/24 03:29:58;;;;;;;31.13;8.37;;;9.80;99.90;;;;;;5035527;28;20275;-65
2022/12/24 03:32:28;;;;;;;25.47;7.67;;;9.80;99.90;;;;;;5035559;28;20262;-65
2022/12/24 03:34:54;;;;;;;23.57;7.93;;;9.80;99.90;;;;;;5035584;28;20273;-65
2022/12/24 03:37:20;;;;;;;26.97;8.33;;;9.80;99.90;;;;;;5035602;28;20613;-65
2022/12/24 03:39:46;;;;;;;33.90;9.73;;;9.80;99.90;;;;;;5034156;28;20261;-65
2022/12/24 03:42:12;;;;;;;21.37;7.00;;;9.80;99.90;;;;;;5035457;28;20651;-65
2022/12/24 03:44:38;;;;;;;22.27;8.40;;;9.80;99.90;;;;;;5035353;28;20262;-65
2022/12/24 03:47:04;;;;;;;23.43;8.00;;;9.90;99.90;;;;;;5035359;28;20663;-65
2022/12/24 03:49:30;;;;;;;21.50;8.57;;;9.90;99.90;;;;;;5034001;28;20557;-65
2022/12/24 03:51:55;;;;;;;34.27;8.97;;;9.90;99.90;;;;;;5035408;28;20697;-65
2022/12/24 03:54:21;;;;;;;22.50;8.73;;;10.00;99.90;;;;;;5035065;28;20199;-65
2022/12/24 03:56:47;;;;;;;30.97;8.43;;;9.90;99.90;;;;;;5035405;28;20164;-66
2022/12/24 03:59:13;;;;;;;27.07;8.33;;;10.00;99.90;;;;;;5035411;28;20183;-65
2022/12/24 04:01:39;;;;;;;26.43;8.13;;;9.90;99.90;;;;;;5034960;28;20259;-66
2022/12/24 04:04:04;;;;;;;26.30;8.30;;;9.90;99.90;;;;;;5034989;28;20266;-65
2022/12/24 04:06:30;;;;;;;26.40;8.20;;;9.90;99.90;;;;;;5034978;28;20237;-65
2022/12/24 04:08:58;;;;;;;27.20;7.67;;;10.00;99.90;;;;;;5034925;28;20210;-65
2022/12/24 04:11:24;;;;;;;32.63;8.40;;;10.00;99.90;;;;;;5035046;28;20171;-65
2022/12/24 04:13:49;;;;;;;23.73;7.20;;;10.00;99.90;;;;;;5035122;28;20249;-65
2022/12/24 04:16:16;;;;;;;31.40;7.83;;;10.00;99.90;;;;;;5035051;28;20179;-66
2022/12/24 04:18:42;;;;;;;30.63;7.20;;;10.00;99.90;;;;;;5034742;28;20568;-65
2022/12/24 04:21:08;;;;;;;26.97;7.30;;;9.90;99.90;;;;;;5034919;28;20195;-65
2022/12/24 04:23:36;;;;;;;25.73;7.23;;;9.90;99.90;;;;;;5033421;28;20175;-65
2022/12/24 04:26:03;;;;;;;30.80;7.27;;;9.80;99.90;;;;;;5033327;28;20183;-65
2022/12/24 04:28:30;;;;;;;27.70;8.20;;;9.80;99.90;;;;;;5034651;28;20171;-65
2022/12/24 04:31:07;;;;;;;28.17;7.70;;;9.80;99.90;;;;;;5034456;28;20187;-65
2022/12/24 04:33:33;;;;;;;28.07;7.80;;;9.80;99.90;;;;;;5033181;28;20730;-65
2022/12/24 04:36:01;;;;;;;23.10;6.60;;;9.80;99.90;;;;;;5034689;28;20182;-65
2022/12/24 04:38:27;;;;;;;28.37;7.03;;;9.80;99.90;;;;;;5034288;28;20183;-65
2022/12/24 04:41:16;;;;;;;32.23;7.77;;;9.70;99.90;;;;;;5034582;28;20218;-65
2022/12/24 04:43:42;;;;;;;24.47;8.07;;;9.70;99.90;;;;;;5034474;28;20174;-65
2022/12/24 04:46:13;;;;;;;30.03;7.50;;;9.70;99.90;;;;;;5034398;28;20171;-66
2022/12/24 04:48:40;;;;;;;26.97;7.40;;;9.70;99.90;;;;;;5034472;28;20171;-66
2022/12/24 04:51:08;;;;;;;21.30;6.70;;;9.70;99.90;;;;;;5035310;28;20179;-65
2022/12/24 04:53:35;;;;;;;25.30;6.77;;;9.70;99.90;;;;;;5035085;28;20518;-65
2022/12/24 04:56:01;;;;;;;26.80;7.20;;;9.70;99.90;;;;;;5035147;28;20591;-65
2022/12/24 04:58:27;;;;;;;25.37;7.37;;;9.70;99.90;;;;;;5034921;28;20542;-65
2022/12/24 05:00:53;;;;;;;19.20;7.30;;;9.70;99.90;;;;;;5034198;28;20199;-65
2022/12/24 05:03:19;;;;;;;21.30;7.37;;;9.70;99.90;;;;;;5034440;28;20175;-65
2022/12/24 05:05:45;;;;;;;25.27;7.37;;;9.70;99.90;;;;;;5033973;28;20201;-65
2022/12/24 05:08:11;;;;;;;25.13;7.60;;;9.70;99.90;;;;;;5033956;28;20600;-64
2022/12/24 05:10:36;;;;;;;17.57;6.70;;;9.70;99.90;;;;;;5033816;28;20182;-64
2022/12/24 05:13:02;;;;;;;23.73;6.77;;;9.70;99.90;;;;;;5033865;28;20233;-64
2022/12/24 05:15:28;;;;;;;25.80;7.40;;;9.80;99.90;;;;;;5032571;28;20572;-65
2022/12/24 05:17:54;;;;;;;14.87;6.80;;;9.80;99.90;;;;;;5033835;28;20181;-65
2022/12/24 05:20:20;;;;;;;19.63;7.80;;;9.80;99.90;;;;;;5033976;28;20670;-65
2022/12/24 05:28:23;;;;;;;17.27;6.50;;;9.80;99.90;;;;;;5034233;28;20198;-65
2022/12/24 05:30:49;;;;;;;17.03;6.13;;;9.80;99.90;;;;;;5035096;28;20197;-66
2022/12/24 05:33:15;;;;;;;18.10;6.83;;;9.80;99.90;;;;;;5034914;28;20163;-65
2022/12/24 05:35:41;;;;;;;19.80;6.40;;;9.80;99.90;;;;;;5034663;28;20206;-65
2022/12/24 05:38:06;;;;;;;26.03;6.77;;;9.80;99.90;;;;;;5034039;28;20663;-65
2022/12/24 05:40:32;;;;;;;21.30;6.97;;;9.80;99.90;;;;;;5034328;28;20205;-65
2022/12/24 05:42:58;;;;;;;17.63;6.40;;;9.80;99.90;;;;;;5033942;28;20179;-65
2022/12/24 05:45:24;;;;;;;21.87;6.83;;;9.80;99.90;;;;;;5034068;28;20199;-65
2022/12/24 05:47:50;;;;;;;19.63;6.83;;;9.80;99.90;;;;;;5033570;28;20178;-65
2022/12/24 05:50:15;;;;;;;20.70;7.20;;;9.80;99.90;;;;;;5035487;28;20591;-65
2022/12/24 05:52:41;;;;;;;14.63;6.53;;;9.80;99.90;;;;;;5036512;28;20181;-65
2022/12/24 05:55:08;;;;;;;19.57;7.53;;;9.90;99.90;;;;;;5037782;28;20198;-65
2022/12/24 05:57:33;;;;;;;19.27;6.10;;;9.90;99.90;;;;;;5037499;28;20174;-65
2022/12/24 05:59:59;;;;;;;12.77;5.63;;;9.90;99.90;;;;;;5037627;28;20278;-65
2022/12/24 06:02:25;;;;;;;19.07;6.53;;;10.00;99.90;;;;;;5037209;28;20175;-65
2022/12/24 06:04:50;;;;;;;15.83;6.33;;;10.00;99.90;;;;;;5037503;28;20215;-65
2022/12/24 06:07:16;;;;;;;18.10;6.00;;;10.00;99.90;;;;;;5037194;28;20205;-65
2022/12/24 06:09:42;;;;;;;14.07;5.90;;;10.00;99.90;;;;;;5037169;28;20187;-65
2022/12/24 06:12:07;;;;;;;18.13;6.60;;;9.90;99.90;;;;;;5035884;28;20179;-65
2022/12/24 06:14:33;;;;;;;15.75;6.22;;;9.90;99.90;;;;;;5035672;28;20203;-65
2022/12/24 06:16:59;;;;;;;13.77;6.20;;;9.90;99.90;;;;;;5037004;28;20183;-65
2022/12/24 06:19:25;;;;;;;21.57;6.80;;;9.90;99.90;;;;;;5037065;28;20191;-65
2022/12/24 06:21:50;;;;;;;20.17;6.43;;;9.90;99.90;;;;;;5037029;28;20171;-65
2022/12/24 06:24:16;;;;;;;19.03;7.13;;;9.90;99.90;;;;;;5036955;28;20659;-64
2022/12/24 06:26:42;;;;;;;14.83;6.00;;;9.90;99.90;;;;;;5036855;28;20183;-64
2022/12/24 06:29:08;;;;;;;26.10;6.40;;;9.90;99.90;;;;;;5037026;28;20187;-65
2022/12/24 06:31:33;;;;;;;19.00;6.53;;;9.90;99.90;;;;;;5036669;28;20662;-65
2022/12/24 06:33:59;;;;;;;18.87;6.60;;;9.90;99.90;;;;;;5036760;28;20298;-64
2022/12/24 06:36:25;;;;;;;23.87;6.60;;;9.90;99.90;;;;;;5036614;28;20168;-64
2022/12/24 06:38:53;;;;;;;19.07;6.93;;;9.90;99.90;;;;;;5037154;28;20155;-64
2022/12/24 06:41:19;;;;;;;24.60;7.27;;;9.90;99.90;;;;;;5036819;28;20203;-65
2022/12/24 06:43:51;;;;;;;25.40;7.03;;;9.90;99.90;;;;;;5036493;28;20198;-65
2022/12/24 06:46:18;;;;;;;18.80;7.03;;;9.90;99.90;;;;;;5037242;28;20542;-65
2022/12/24 06:48:45;;;;;;;17.03;6.00;;;9.90;99.90;;;;;;5036833;28;20171;-65
2022/12/24 06:51:12;;;;;;;18.40;6.83;;;9.90;99.90;;;;;;5036898;28;20167;-65
2022/12/24 06:53:38;;;;;;;27.83;7.57;;;9.90;99.90;;;;;;5036302;28;20186;-63
2022/12/24 06:56:09;;;;;;;22.80;7.33;;;9.90;99.90;;;;;;5036250;28;20180;-63
2022/12/24 06:58:35;;;;;;;22.30;6.23;;;9.90;99.90;;;;;;5036355;28;20171;-63
2022/12/24 07:01:03;;;;;;;24.53;7.50;;;10.00;99.90;;;;;;5034750;28;20252;-65
2022/12/24 07:03:29;;;;;;;22.07;6.93;;;10.00;99.90;;;;;;5036317;28;20186;-65
2022/12/24 07:05:55;;;;;;;17.57;6.50;;;10.00;99.90;;;;;;5036711;28;20155;-65
2022/12/24 07:08:22;;;;;;;20.97;7.33;;;10.00;99.90;;;;;;5036757;28;20193;-65
2022/12/24 07:10:49;;;;;;;23.67;7.60;;;10.00;99.90;;;;;;5036094;28;20225;-65
2022/12/24 07:13:16;;;;;;;20.20;6.70;;;10.00;99.90;;;;;;5036184;28;20179;-64
2022/12/24 07:15:42;;;;;;;15.83;6.10;;;10.00;99.90;;;;;;5035906;28;20195;-64
2022/12/24 07:18:08;;;;;;;24.33;7.57;;;10.00;99.90;;;;;;5035859;28;20175;-63
2022/12/24 07:20:34;;;;;;;21.87;6.80;;;10.00;99.90;;;;;;5035658;28;20198;-63
2022/12/24 07:23:00;;;;;;;27.97;7.50;;;10.00;99.90;;;;;;5034304;28;20258;-63
2022/12/24 07:25:26;;;;;;;19.87;6.93;;;10.00;99.90;;;;;;5034190;28;20281;-63
2022/12/24 07:27:52;;;;;;;24.33;6.97;;;10.00;99.90;;;;;;5035465;28;20257;-63
2022/12/24 07:30:18;;;;;;;21.57;6.80;;;10.00;99.90;;;;;;5034027;28;20730;-63
2022/12/24 07:32:43;;;;;;;20.40;7.90;;;10.00;99.90;;;;;;5035358;28;20261;-63
2022/12/24 07:35:09;;;;;;;21.73;6.90;;;10.00;99.90;;;;;;5035351;28;20205;-63
2022/12/24 07:37:35;;;;;;;24.57;7.27;;;10.00;99.90;;;;;;5034097;28;20556;-64
2022/12/24 07:40:01;;;;;;;22.57;7.43;;;10.00;99.90;;;;;;5035681;28;20227;-63
2022/12/24 07:42:27;;;;;;;18.47;7.00;;;10.00;99.90;;;;;;5035590;28;20615;-63
2022/12/24 07:44:53;;;;;;;20.13;6.83;;;10.00;99.90;;;;;;5035115;28;20631;-64
2022/12/24 07:47:18;;;;;;;19.07;7.80;;;10.00;99.90;;;;;;5033814;28;20179;-64
2022/12/24 07:49:44;;;;;;;17.47;6.33;;;10.00;99.90;;;;;;5035320;28;20168;-64
2022/12/24 07:52:10;;;;;;;27.90;7.33;;;10.00;99.90;;;;;;5035046;28;20695;-64
2022/12/24 07:54:36;;;;;;;20.30;6.87;;;10.00;99.90;;;;;;5034925;28;20226;-64
2022/12/24 07:57:01;;;;;;;18.00;7.07;;;10.00;99.90;;;;;;5035037;28;20771;-64
2022/12/24 07:59:27;;;;;;;22.07;7.07;;;10.00;99.90;;;;;;5033559;28;20580;-63
2022/12/24 08:01:53;;;;;;;25.47;7.73;;;10.00;99.90;;;;;;5034877;28;20224;-63
2022/12/24 08:04:19;;;;;;;22.03;7.03;;;10.00;99.90;;;;;;5034836;28;20187;-63
2022/12/24 08:06:44;;;;;;;24.90;7.27;;;10.00;99.90;;;;;;5034870;28;20229;-63
2022/12/24 08:09:10;;;;;;;18.80;6.63;;;10.00;99.90;;;;;;5033507;28;20221;-63
2022/12/24 08:11:36;;;;;;;21.13;6.83;;;10.00;99.90;;;;;;5034861;28;20595;-63
2022/12/24 08:14:01;;;;;;;21.92;6.70;;;10.10;99.90;;;;;;5034423;28;20286;-63
2022/12/24 08:16:27;;;;;;;24.00;7.63;;;10.00;99.90;;;;;;5034867;28;20198;-63
2022/12/24 08:18:53;;;;;;;21.60;7.33;;;10.00;99.90;;;;;;5034799;28;20179;-63
2022/12/24 08:21:18;;;;;;;26.87;7.13;;;10.10;99.90;;;;;;5034795;28;20257;-63
2022/12/24 08:23:46;;;;;;;20.17;7.20;;;10.10;99.90;;;;;;5034378;28;20182;-63
2022/12/24 08:26:11;;;;;;;18.57;7.00;;;10.10;99.90;;;;;;5034565;28;20171;-63
2022/12/24 08:28:37;;;;;;;24.70;7.80;;;10.00;99.90;;;;;;5034529;28;20254;-63
2022/12/24 08:31:04;;;;;;;24.23;7.30;;;10.10;99.90;;;;;;5034790;28;20183;-63
2022/12/24 08:33:31;;;;;;;28.17;6.73;;;10.10;99.90;;;;;;5034270;28;20677;-63
2022/12/24 08:35:57;;;;;;;18.43;6.37;;;10.10;99.90;;;;;;5034771;28;20175;-63
2022/12/24 08:38:23;;;;;;;22.13;6.40;;;10.10;99.90;;;;;;5034760;28;20194;-63
2022/12/24 08:40:51;;;;;;;26.40;7.70;;;10.20;99.90;;;;;;5034185;28;20221;-63
2022/12/24 08:43:18;;;;;;;19.83;7.27;;;10.20;99.90;;;;;;5034531;28;20164;-63
2022/12/24 08:45:45;;;;;;;25.07;7.07;;;10.20;99.90;;;;;;5033169;28;20206;-63
2022/12/24 08:48:11;;;;;;;26.23;6.67;;;10.20;99.90;;;;;;5034010;28;20679;-63
2022/12/24 08:50:40;;;;;;;20.83;7.10;;;10.20;99.90;;;;;;5034024;28;20262;-63
2022/12/24 08:53:07;;;;;;;26.20;7.70;;;10.20;99.90;;;;;;5032876;28;20183;-67
2022/12/24 08:55:32;;;;;;;29.57;6.97;;;10.20;99.90;;;;;;5032697;28;20568;-65
2022/12/24 08:57:59;;;;;;;26.30;7.13;;;10.10;99.90;;;;;;5033894;28;20236;-63
2022/12/24 09:00:25;;;;;;;29.30;7.80;;;10.10;99.90;;;;;;5034215;28;20203;-63
2022/12/24 09:02:50;;;;;;;27.13;8.17;;;10.10;99.90;;;;;;5033804;28;20747;-63
2022/12/24 09:05:16;;;;;;;26.30;8.27;;;10.10;99.90;;;;;;5033652;28;20191;-63
2022/12/24 09:07:42;;;;;;;23.20;7.47;;;10.10;99.90;;;;;;5032484;28;20175;-63
2022/12/24 09:10:09;;;;;;;27.33;6.83;;;10.10;99.90;;;;;;5032473;28;20197;-63
2022/12/24 09:12:35;;;;;;;26.20;7.30;;;10.20;99.90;;;;;;5033544;28;20228;-63
2022/12/24 09:15:01;;;;;;;27.27;7.57;;;10.20;99.90;;;;;;5033519;28;20191;-63
2022/12/24 09:17:27;;;;;;;23.27;7.67;;;10.20;99.90;;;;;;5033439;28;20171;-63
2022/12/24 09:19:53;;;;;;;24.07;7.87;;;10.20;99.90;;;;;;5033379;28;20221;-63
2022/12/24 09:22:18;;;;;;;23.47;7.57;;;10.10;99.90;;;;;;5033637;28;20724;-63
2022/12/24 09:24:44;;;;;;;25.50;7.73;;;10.10;99.90;;;;;;5032903;28;20195;-63
2022/12/24 09:27:10;;;;;;;21.33;8.00;;;10.10;99.90;;;;;;5033548;28;20216;-63
2022/12/24 09:29:39;;;;;;;22.63;7.43;;;10.20;99.90;;;;;;5033484;28;20195;-63
2022/12/24 09:32:05;;;;;;;18.00;6.50;;;10.20;99.90;;;;;;5033340;28;20229;-63
2022/12/24 09:34:31;;;;;;;22.63;6.73;;;10.20;99.90;;;;;;5033347;28;20749;-63
2022/12/24 09:36:58;;;;;;;25.43;7.27;;;10.30;99.90;;;;;;5033388;28;20265;-63
2022/12/24 09:39:24;;;;;;;24.13;6.90;;;10.30;99.90;;;;;;5032224;28;20189;-63
2022/12/24 09:42:10;;;;;;;25.70;7.37;;;10.30;99.90;;;;;;5033255;28;20167;-63
2022/12/24 09:45:04;;;;;;;25.70;8.10;;;10.30;99.90;;;;;;5033499;28;20199;-63
2022/12/24 09:47:40;;;;;;;22.80;7.63;;;10.30;99.90;;;;;;5031924;28;20163;-63
2022/12/24 09:50:41;;;;;;;31.27;7.10;;;10.40;99.90;;;;;;5033404;28;20163;-65
2022/12/24 09:53:13;;;;;;;24.43;6.77;;;10.40;99.90;;;;;;5028880;28;20195;-65
2022/12/24 09:55:47;;;;;;;28.47;7.43;;;10.40;99.90;;;;;;5033325;28;20195;-68
2022/12/24 09:58:22;;;;;;;25.50;7.07;;;10.40;99.90;;;;;;5033797;28;20175;-65
2022/12/24 10:00:49;;;;;;;28.60;6.82;;;10.50;99.90;;;;;;5031962;28;20241;-65
2022/12/24 10:03:16;;;;;;;27.77;7.27;;;10.50;99.90;;;;;;5031737;28;20182;-65
2022/12/24 10:06:06;;;;;;;30.55;7.95;;;10.50;99.90;;;;;;5031916;28;20199;-64
2022/12/24 10:09:10;;;;;;;21.70;6.63;;;10.50;99.90;;;;;;5033551;28;20205;-65
2022/12/24 10:12:13;;;;;;;28.17;7.20;;;10.50;99.90;;;;;;5033445;28;20599;-65
2022/12/24 10:15:32;;;;;;;28.33;7.53;;;10.50;99.90;;;;;;5033439;28;20702;-65
2022/12/24 10:18:29;;;;;;;20.37;6.90;;;10.50;99.90;;;;;;4956036;28;20189;-65
2022/12/24 10:21:13;;;;;;;28.73;7.00;;;10.50;99.90;;;;;;5032988;28;20242;-68
2022/12/24 10:24:14;;;;;;;28.30;7.60;;;10.70;99.90;;;;;;5032078;28;20174;-68
2022/12/24 10:26:50;;;;;;;24.53;9.07;;;10.70;99.90;;;;;;5031742;28;20179;-69
2022/12/24 10:29:19;;;;;;;25.23;7.83;;;10.70;99.90;;;;;;5031764;28;20720;-65
2022/12/24 10:32:08;;;;;;;21.33;6.37;;;10.80;99.90;;;;;;5032839;28;20222;-65
2022/12/24 10:34:54;;;;;;;29.37;11.43;;;10.90;99.90;;;;;;4993662;28;20267;-65
2022/12/24 10:37:23;;;;;;;23.20;8.50;;;10.90;99.90;;;;;;5036368;28;20214;-65
2022/12/24 10:39:50;;;;;;;27.05;9.93;;;10.90;99.90;;;;;;5036447;28;20191;-65
2022/12/24 10:42:17;;;;;;;28.63;10.07;;;10.90;99.90;;;;;;5036502;28;20678;-65
2022/12/24 10:44:48;;;;;;;45.30;17.45;;;11.00;99.90;;;;;;5036398;28;20199;-65
2022/12/24 10:47:19;;;;;;;22.40;6.72;;;11.00;99.90;;;;;;5035133;28;20171;-65
2022/12/24 10:49:53;;;;;;;31.33;7.80;;;11.10;99.90;;;;;;5036849;28;20167;-65
2022/12/24 10:52:23;;;;;;;11.33;5.70;;;11.10;99.90;;;;;;5036512;28;20163;-65
2022/12/24 10:55:12;;;;;;;17.10;6.75;;;11.10;99.90;;;;;;5034991;28;20353;-65
2022/12/24 10:57:39;;;;;;;27.88;6.60;;;11.00;99.90;;;;;;5029120;28;20198;-65
2022/12/24 11:00:17;;;;;;;25.85;7.80;;;11.00;99.90;;;;;;5035076;28;20317;-65
2022/12/24 11:02:42;;;;;;;24.23;8.00;;;10.80;99.90;;;;;;5036276;28;20163;-65
2022/12/24 11:05:33;;;;;;;25.40;7.17;;;10.80;99.90;;;;;;5036887;28;20643;-65
2022/12/24 11:08:03;;;;;;;21.10;7.33;;;10.70;99.90;;;;;;5035122;28;20183;-65
2022/12/24 11:10:30;;;;;;;31.80;7.00;;;10.70;99.90;;;;;;5035445;28;20762;-66
2022/12/24 11:12:56;;;;;;;31.87;7.33;;;10.80;99.90;;;;;;5036245;28;20178;-64
2022/12/24 11:15:33;;;;;;;24.87;6.93;;;10.90;99.90;;;;;;5035913;28;20198;-64
2022/12/24 11:18:05;;;;;;;19.63;6.40;;;11.00;99.90;;;;;;5036301;28;20164;-64
2022/12/24 11:20:33;;;;;;;22.25;6.85;;;11.20;99.90;;;;;;5036378;28;20198;-64
2022/12/24 11:23:01;;;;;;;19.93;7.00;;;11.20;99.90;;;;;;5036558;28;20189;-64
2022/12/24 11:25:32;;;;;;;22.27;6.30;;;11.10;99.90;;;;;;5035764;28;20203;-64
2022/12/24 11:28:26;;;;;;;29.27;7.90;;;11.20;99.90;;;;;;5035608;28;20198;-64
2022/12/24 11:30:57;;;;;;;24.17;6.85;;;11.00;99.90;;;;;;5027074;28;20199;-64
2022/12/24 11:33:23;;;;;;;23.83;7.20;;;11.00;99.90;;;;;;5036148;28;20186;-64
2022/12/24 11:35:54;;;;;;;21.52;6.72;;;10.90;99.90;;;;;;5036763;28;20234;-64
2022/12/24 11:38:24;;;;;;;29.15;7.72;;;10.90;99.90;;;;;;5037382;28;20247;-64
2022/12/24 11:40:58;;;;;;;23.48;6.93;;;10.90;99.90;;;;;;5037526;28;20678;-65
2022/12/24 11:43:43;;;;;;;24.95;7.00;;;10.90;99.90;;;;;;5037124;28;20221;-64
2022/12/24 11:46:36;;;;;;;20.58;7.15;;;10.90;99.90;;;;;;5036170;28;20182;-64
2022/12/24 11:49:11;;;;;;;26.63;7.45;;;11.00;99.90;;;;;;5029348;28;20183;-64
2022/12/24 11:51:39;;;;;;;17.60;6.70;;;11.00;99.90;;;;;;5034555;28;20185;-64
2022/12/24 11:54:30;;;;;;;16.48;6.90;;;11.00;99.90;;;;;;5035511;28;20737;-64
2022/12/24 11:57:00;;;;;;;28.50;7.72;;;10.90;99.90;;;;;;5035751;28;20623;-64
2022/12/24 11:59:30;;;;;;;28.20;7.53;;;11.00;99.90;;;;;;5033821;28;20163;-67
2022/12/24 12:02:22;;;;;;;18.50;6.93;;;10.90;99.90;;;;;;5033728;28;20262;-64
2022/12/24 12:05:02;;;;;;;22.97;7.33;;;10.90;99.90;;;;;;5035248;28;20537;-64
2022/12/24 12:07:34;;;;;;;19.73;7.47;;;10.90;99.90;;;;;;5035284;28;20159;-64
2022/12/24 12:10:06;;;;;;;20.98;7.55;;;10.80;99.90;;;;;;5035214;28;20175;-64
2022/12/24 12:12:39;;;;;;;21.17;6.80;;;10.90;99.90;;;;;;5034687;28;20183;-64
2022/12/24 12:15:31;;;;;;;26.40;7.45;;;10.90;99.90;;;;;;5034669;28;20217;-64
2022/12/24 12:18:12;;;;;;;25.63;7.47;;;10.90;99.90;;;;;;5033545;28;20221;-64
2022/12/24 12:20:45;;;;;;;24.92;6.30;;;10.90;99.90;;;;;;5035148;28;20543;-64
2022/12/24 12:23:16;;;;;;;20.08;6.65;;;10.90;99.90;;;;;;5035171;28;20166;-64
2022/12/24 12:25:42;;;;;;;25.38;7.55;;;11.00;99.90;;;;;;5034799;28;20395;-64
2022/12/24 12:28:19;;;;;;;27.67;7.03;;;10.90;99.90;;;;;;5034552;28;20663;-66
2022/12/24 12:30:53;;;;;;;30.52;7.72;;;10.90;99.90;;;;;;5034382;28;20226;-66
2022/12/24 12:33:25;;;;;;;28.92;7.53;;;10.80;99.90;;;;;;5034326;28;20221;-62
2022/12/24 12:35:53;;;;;;;24.02;7.47;;;10.80;99.90;;;;;;5034563;28;20199;-64
2022/12/24 12:38:24;;;;;;;19.58;7.20;;;10.80;99.90;;;;;;5034350;28;20199;-62
2022/12/24 12:41:20;;;;;;;23.38;7.82;;;10.90;99.90;;;;;;5034131;28;20203;-62
2022/12/24 12:44:08;;;;;;;21.58;7.47;;;10.90;99.90;;;;;;5034031;28;20225;-62
2022/12/24 12:46:48;;;;;;;26.30;7.28;;;10.90;99.90;;;;;;5034020;28;21217;-62
2022/12/24 12:49:42;;;;;;;24.00;7.03;;;10.80;99.90;;;;;;5034122;28;20540;-62
2022/12/24 12:52:22;;;;;;;18.77;7.38;;;10.80;99.90;;;;;;5034742;28;20163;-62
2022/12/24 12:55:09;;;;;;;26.50;7.03;;;10.80;99.90;;;;;;5034006;28;20194;-62
2022/12/24 12:57:38;;;;;;;30.70;7.83;;;10.70;99.90;;;;;;5032778;28;20171;-61
2022/12/24 13:00:10;;;;;;;23.80;7.18;;;10.70;99.90;;;;;;5034277;28;20202;-63
2022/12/24 13:02:51;;;;;;;21.87;7.23;;;10.70;99.90;;;;;;5033679;28;20171;-62
2022/12/24 13:05:26;;;;;;;24.25;7.28;;;10.80;99.90;;;;;;5033897;28;20195;-62
2022/12/24 13:08:29;;;;;;;24.25;7.47;;;10.90;99.90;;;;;;5032289;28;20170;-62